sensor_id;sensor_type;location;lat;lon;timestamp;P1;durP1;ratioP1;P2;durP2;ratioP2
8458;SDS011;4266;48.816;9.154;2023-04-06T00:02:18;15.47;;;12.50;;
8458;SDS011;4266;48.816;9.154;2023-04-06T00:04:44;14.70;;;11.33;;
8458;SDS011;4266;48.816;9.154;2023-04-06T00:07:10;13.23;;;11.90;;
8458;SDS011;4266;48.816;9.154;2023-04-06T00:09:36;13.20;;;11.90;;
8458;SDS011;4266;48.816;9.154;2023-04-06T00:12:01;12.47;;;10.53;;
8458;SDS011;4266;48.816;9.154;2023-04-06T00:14:27;13.13;;;11.77;;
8458;SDS011;4266;48.816;9.154;2023-04-06T00:16:53;12.27;;;10.77;;
8458;SDS011;4266;48.816;9.154;2023-04-06T00:19:18;13.23;;;11.80;;
8458;SDS011;4266;48.816;9.154;2023-04-06T00:21:44;14.40;;;12.87;;
8458;SDS011;4266;48.816;9.154;2023-04-06T00:24:11;14.00;;;12.40;;
8458;SDS011;4266;48.816;9.154;2023-04-06T00:26:36;13.87;;;12.47;;
8458;SDS011;4266;48.816;9.154;2023-04-06T00:29:03;18.07;;;11.17;;
8458;SDS011;4266;48.816;9.154;2023-04-06T00:31:28;13.33;;;11.93;;
8458;SDS011;4266;48.816;9.154;2023-04-06T00:33:54;15.90;;;12.73;;
8458;SDS011;4266;48.816;9.154;2023-04-06T00:36:20;15.33;;;13.73;;
8458;SDS011;4266;48.816;9.154;2023-04-06T00:38:45;14.60;;;13.07;;
8458;SDS011;4266;48.816;9.154;2023-04-06T00:41:11;15.00;;;13.63;;
8458;SDS011;4266;48.816;9.154;2023-04-06T00:43:37;15.03;;;13.40;;
8458;SDS011;4266;48.816;9.154;2023-04-06T00:46:03;18.03;;;13.23;;
8458;SDS011;4266;48.816;9.154;2023-04-06T00:48:29;15.57;;;13.33;;
8458;SDS011;4266;48.816;9.154;2023-04-06T00:50:54;13.80;;;12.30;;
8458;SDS011;4266;48.816;9.154;2023-04-06T00:53:20;15.13;;;12.10;;
8458;SDS011;4266;48.816;9.154;2023-04-06T00:55:46;13.53;;;12.30;;
8458;SDS011;4266;48.816;9.154;2023-04-06T00:58:11;14.23;;;12.30;;
8458;SDS011;4266;48.816;9.154;2023-04-06T01:00:38;14.73;;;13.23;;
8458;SDS011;4266;48.816;9.154;2023-04-06T01:03:05;13.73;;;12.40;;
8458;SDS011;4266;48.816;9.154;2023-04-06T01:05:32;14.10;;;12.47;;
8458;SDS011;4266;48.816;9.154;2023-04-06T01:07:56;14.43;;;12.17;;
8458;SDS011;4266;48.816;9.154;2023-04-06T01:10:24;17.03;;;12.13;;
8458;SDS011;4266;48.816;9.154;2023-04-06T01:12:49;13.20;;;11.90;;
8458;SDS011;4266;48.816;9.154;2023-04-06T01:15:14;12.87;;;11.57;;
8458;SDS011;4266;48.816;9.154;2023-04-06T01:17:40;13.47;;;10.80;;
8458;SDS011;4266;48.816;9.154;2023-04-06T01:20:06;10.80;;;9.77;;
8458;SDS011;4266;48.816;9.154;2023-04-06T01:22:32;12.10;;;10.90;;
8458;SDS011;4266;48.816;9.154;2023-04-06T01:24:58;13.63;;;10.13;;
8458;SDS011;4266;48.816;9.154;2023-04-06T01:27:24;14.00;;;10.63;;
8458;SDS011;4266;48.816;9.154;2023-04-06T01:29:51;13.67;;;10.90;;
8458;SDS011;4266;48.816;9.154;2023-04-06T01:32:17;14.00;;;10.10;;
8458;SDS011;4266;48.816;9.154;2023-04-06T01:34:42;12.43;;;10.80;;
8458;SDS011;4266;48.816;9.154;2023-04-06T01:37:08;13.27;;;11.50;;
8458;SDS011;4266;48.816;9.154;2023-04-06T01:39:34;13.90;;;11.97;;
8458;SDS011;4266;48.816;9.154;2023-04-06T01:41:59;21.97;;;12.30;;
8458;SDS011;4266;48.816;9.154;2023-04-06T01:44:26;14.27;;;12.93;;
8458;SDS011;4266;48.816;9.154;2023-04-06T01:46:52;14.40;;;12.70;;
8458;SDS011;4266;48.816;9.154;2023-04-06T01:49:17;14.00;;;12.53;;
8458;SDS011;4266;48.816;9.154;2023-04-06T01:51:43;13.90;;;12.50;;
8458;SDS011;4266;48.816;9.154;2023-04-06T01:54:09;14.50;;;13.10;;
8458;SDS011;4266;48.816;9.154;2023-04-06T01:56:35;18.17;;;12.67;;
8458;SDS011;4266;48.816;9.154;2023-04-06T01:59:02;13.67;;;12.30;;
8458;SDS011;4266;48.816;9.154;2023-04-06T02:01:28;17.47;;;12.90;;
8458;SDS011;4266;48.816;9.154;2023-04-06T02:03:54;13.83;;;12.37;;
8458;SDS011;4266;48.816;9.154;2023-04-06T02:06:22;14.50;;;13.10;;
8458;SDS011;4266;48.816;9.154;2023-04-06T02:08:47;14.03;;;12.53;;
8458;SDS011;4266;48.816;9.154;2023-04-06T02:11:13;13.03;;;11.67;;
8458;SDS011;4266;48.816;9.154;2023-04-06T02:13:39;15.10;;;12.67;;
8458;SDS011;4266;48.816;9.154;2023-04-06T02:16:05;13.93;;;12.37;;
8458;SDS011;4266;48.816;9.154;2023-04-06T02:18:31;14.67;;;12.50;;
8458;SDS011;4266;48.816;9.154;2023-04-06T02:20:57;16.67;;;14.13;;
8458;SDS011;4266;48.816;9.154;2023-04-06T02:23:24;12.90;;;11.53;;
8458;SDS011;4266;48.816;9.154;2023-04-06T02:25:49;13.77;;;12.40;;
8458;SDS011;4266;48.816;9.154;2023-04-06T02:28:16;13.43;;;12.03;;
8458;SDS011;4266;48.816;9.154;2023-04-06T02:30:42;13.43;;;12.07;;
8458;SDS011;4266;48.816;9.154;2023-04-06T02:33:08;15.53;;;12.90;;
8458;SDS011;4266;48.816;9.154;2023-04-06T02:35:34;14.77;;;12.63;;
8458;SDS011;4266;48.816;9.154;2023-04-06T02:38:00;13.30;;;11.90;;
8458;SDS011;4266;48.816;9.154;2023-04-06T02:40:26;13.13;;;11.83;;
8458;SDS011;4266;48.816;9.154;2023-04-06T02:42:52;14.20;;;12.80;;
8458;SDS011;4266;48.816;9.154;2023-04-06T02:45:18;13.57;;;12.23;;
8458;SDS011;4266;48.816;9.154;2023-04-06T02:47:44;13.73;;;12.43;;
8458;SDS011;4266;48.816;9.154;2023-04-06T02:50:10;13.37;;;12.17;;
8458;SDS011;4266;48.816;9.154;2023-04-06T02:52:36;13.93;;;12.37;;
8458;SDS011;4266;48.816;9.154;2023-04-06T02:55:01;15.20;;;12.37;;
8458;SDS011;4266;48.816;9.154;2023-04-06T02:57:27;13.67;;;12.47;;
8458;SDS011;4266;48.816;9.154;2023-04-06T02:59:53;15.83;;;12.07;;
8458;SDS011;4266;48.816;9.154;2023-04-06T03:02:19;14.40;;;12.33;;
8458;SDS011;4266;48.816;9.154;2023-04-06T03:04:45;14.77;;;12.73;;
8458;SDS011;4266;48.816;9.154;2023-04-06T03:07:12;14.60;;;12.93;;
8458;SDS011;4266;48.816;9.154;2023-04-06T03:09:37;16.77;;;12.60;;
8458;SDS011;4266;48.816;9.154;2023-04-06T03:12:03;13.97;;;12.60;;
8458;SDS011;4266;48.816;9.154;2023-04-06T03:14:29;13.40;;;12.00;;
8458;SDS011;4266;48.816;9.154;2023-04-06T03:16:55;14.67;;;13.10;;
8458;SDS011;4266;48.816;9.154;2023-04-06T03:19:20;16.77;;;11.97;;
8458;SDS011;4266;48.816;9.154;2023-04-06T03:21:46;15.83;;;12.80;;
8458;SDS011;4266;48.816;9.154;2023-04-06T03:24:12;16.77;;;13.47;;
8458;SDS011;4266;48.816;9.154;2023-04-06T03:26:37;14.10;;;12.63;;
8458;SDS011;4266;48.816;9.154;2023-04-06T03:29:03;13.77;;;12.03;;
8458;SDS011;4266;48.816;9.154;2023-04-06T03:31:29;16.10;;;12.93;;
8458;SDS011;4266;48.816;9.154;2023-04-06T03:33:54;17.17;;;14.23;;
8458;SDS011;4266;48.816;9.154;2023-04-06T03:36:20;14.97;;;13.47;;
8458;SDS011;4266;48.816;9.154;2023-04-06T03:38:46;15.03;;;13.33;;
8458;SDS011;4266;48.816;9.154;2023-04-06T03:41:11;15.63;;;13.23;;
8458;SDS011;4266;48.816;9.154;2023-04-06T03:43:37;15.30;;;13.67;;
8458;SDS011;4266;48.816;9.154;2023-04-06T03:46:04;16.30;;;12.07;;
8458;SDS011;4266;48.816;9.154;2023-04-06T03:48:29;17.10;;;13.20;;
8458;SDS011;4266;48.816;9.154;2023-04-06T03:50:55;16.03;;;13.50;;
8458;SDS011;4266;48.816;9.154;2023-04-06T03:53:22;18.03;;;13.87;;
8458;SDS011;4266;48.816;9.154;2023-04-06T03:55:48;20.10;;;14.67;;
8458;SDS011;4266;48.816;9.154;2023-04-06T03:58:14;16.10;;;13.17;;
8458;SDS011;4266;48.816;9.154;2023-04-06T04:00:40;19.53;;;13.80;;
8458;SDS011;4266;48.816;9.154;2023-04-06T04:03:06;15.53;;;13.93;;
8458;SDS011;4266;48.816;9.154;2023-04-06T04:05:32;18.27;;;14.00;;
8458;SDS011;4266;48.816;9.154;2023-04-06T04:07:58;19.80;;;14.50;;
8458;SDS011;4266;48.816;9.154;2023-04-06T04:10:24;17.40;;;14.63;;
8458;SDS011;4266;48.816;9.154;2023-04-06T04:12:50;18.97;;;14.00;;
8458;SDS011;4266;48.816;9.154;2023-04-06T04:15:15;18.90;;;14.17;;
8458;SDS011;4266;48.816;9.154;2023-04-06T04:17:41;14.73;;;13.27;;
8458;SDS011;4266;48.816;9.154;2023-04-06T04:20:09;17.50;;;14.13;;
8458;SDS011;4266;48.816;9.154;2023-04-06T04:22:35;15.83;;;14.33;;
8458;SDS011;4266;48.816;9.154;2023-04-06T04:25:01;15.70;;;13.43;;
8458;SDS011;4266;48.816;9.154;2023-04-06T04:27:27;17.70;;;13.87;;
8458;SDS011;4266;48.816;9.154;2023-04-06T04:29:53;18.47;;;14.50;;
8458;SDS011;4266;48.816;9.154;2023-04-06T04:32:19;16.37;;;13.77;;
8458;SDS011;4266;48.816;9.154;2023-04-06T04:34:45;27.03;;;13.63;;
8458;SDS011;4266;48.816;9.154;2023-04-06T04:37:10;17.60;;;14.20;;
8458;SDS011;4266;48.816;9.154;2023-04-06T04:39:36;17.43;;;15.07;;
8458;SDS011;4266;48.816;9.154;2023-04-06T04:42:02;16.73;;;14.80;;
8458;SDS011;4266;48.816;9.154;2023-04-06T04:44:27;17.20;;;14.07;;
8458;SDS011;4266;48.816;9.154;2023-04-06T04:46:53;21.97;;;15.37;;
8458;SDS011;4266;48.816;9.154;2023-04-06T04:49:19;17.80;;;15.67;;
8458;SDS011;4266;48.816;9.154;2023-04-06T04:51:44;22.43;;;15.03;;
8458;SDS011;4266;48.816;9.154;2023-04-06T04:54:10;16.60;;;14.83;;
8458;SDS011;4266;48.816;9.154;2023-04-06T04:56:37;20.50;;;16.27;;
8458;SDS011;4266;48.816;9.154;2023-04-06T04:59:02;22.00;;;15.37;;
8458;SDS011;4266;48.816;9.154;2023-04-06T05:01:28;16.37;;;13.77;;
8458;SDS011;4266;48.816;9.154;2023-04-06T05:03:54;20.83;;;14.30;;
8458;SDS011;4266;48.816;9.154;2023-04-06T05:06:19;23.03;;;15.80;;
8458;SDS011;4266;48.816;9.154;2023-04-06T05:08:46;18.70;;;15.10;;
8458;SDS011;4266;48.816;9.154;2023-04-06T05:11:11;17.90;;;14.87;;
8458;SDS011;4266;48.816;9.154;2023-04-06T05:13:37;17.37;;;15.10;;
8458;SDS011;4266;48.816;9.154;2023-04-06T05:16:03;17.07;;;14.70;;
8458;SDS011;4266;48.816;9.154;2023-04-06T05:18:30;17.40;;;14.30;;
8458;SDS011;4266;48.816;9.154;2023-04-06T05:20:56;18.73;;;14.00;;
8458;SDS011;4266;48.816;9.154;2023-04-06T05:23:21;17.67;;;13.60;;
8458;SDS011;4266;48.816;9.154;2023-04-06T05:25:47;19.97;;;15.30;;
8458;SDS011;4266;48.816;9.154;2023-04-06T05:28:13;16.93;;;14.50;;
8458;SDS011;4266;48.816;9.154;2023-04-06T05:30:39;18.97;;;13.70;;
8458;SDS011;4266;48.816;9.154;2023-04-06T05:33:05;19.47;;;15.03;;
8458;SDS011;4266;48.816;9.154;2023-04-06T05:35:31;17.63;;;14.37;;
8458;SDS011;4266;48.816;9.154;2023-04-06T05:37:56;20.60;;;14.20;;
8458;SDS011;4266;48.816;9.154;2023-04-06T05:40:22;16.10;;;14.00;;
8458;SDS011;4266;48.816;9.154;2023-04-06T05:42:48;15.23;;;13.13;;
8458;SDS011;4266;48.816;9.154;2023-04-06T05:45:13;20.43;;;14.43;;
8458;SDS011;4266;48.816;9.154;2023-04-06T05:47:39;17.50;;;14.00;;
8458;SDS011;4266;48.816;9.154;2023-04-06T05:50:06;15.07;;;13.03;;
8458;SDS011;4266;48.816;9.154;2023-04-06T05:52:34;21.27;;;13.30;;
8458;SDS011;4266;48.816;9.154;2023-04-06T05:55:00;19.13;;;14.57;;
8458;SDS011;4266;48.816;9.154;2023-04-06T05:57:25;17.53;;;14.07;;
8458;SDS011;4266;48.816;9.154;2023-04-06T05:59:51;18.07;;;13.37;;
8458;SDS011;4266;48.816;9.154;2023-04-06T06:02:17;17.17;;;13.80;;
8458;SDS011;4266;48.816;9.154;2023-04-06T06:04:43;18.93;;;13.80;;
8458;SDS011;4266;48.816;9.154;2023-04-06T06:07:09;21.03;;;13.53;;
8458;SDS011;4266;48.816;9.154;2023-04-06T06:09:36;17.53;;;13.37;;
8458;SDS011;4266;48.816;9.154;2023-04-06T06:12:02;15.80;;;14.03;;
8458;SDS011;4266;48.816;9.154;2023-04-06T06:14:28;16.50;;;13.13;;
8458;SDS011;4266;48.816;9.154;2023-04-06T06:16:54;16.93;;;13.40;;
8458;SDS011;4266;48.816;9.154;2023-04-06T06:19:21;14.57;;;12.87;;
8458;SDS011;4266;48.816;9.154;2023-04-06T06:21:47;18.17;;;13.93;;
8458;SDS011;4266;48.816;9.154;2023-04-06T06:24:13;19.13;;;14.57;;
8458;SDS011;4266;48.816;9.154;2023-04-06T06:26:38;16.17;;;12.63;;
8458;SDS011;4266;48.816;9.154;2023-04-06T06:32:00;16.17;;;14.10;;
8458;SDS011;4266;48.816;9.154;2023-04-06T06:34:26;19.73;;;12.40;;
8458;SDS011;4266;48.816;9.154;2023-04-06T06:36:52;15.30;;;12.90;;
8458;SDS011;4266;48.816;9.154;2023-04-06T06:39:18;18.03;;;13.27;;
8458;SDS011;4266;48.816;9.154;2023-04-06T06:41:43;20.13;;;13.57;;
8458;SDS011;4266;48.816;9.154;2023-04-06T06:44:10;17.80;;;13.57;;
8458;SDS011;4266;48.816;9.154;2023-04-06T06:46:35;15.50;;;13.00;;
8458;SDS011;4266;48.816;9.154;2023-04-06T06:49:03;26.83;;;13.77;;
8458;SDS011;4266;48.816;9.154;2023-04-06T06:51:28;17.40;;;14.33;;
8458;SDS011;4266;48.816;9.154;2023-04-06T06:53:55;15.60;;;13.63;;
8458;SDS011;4266;48.816;9.154;2023-04-06T06:56:21;19.13;;;13.47;;
8458;SDS011;4266;48.816;9.154;2023-04-06T06:58:46;25.17;;;14.10;;
8458;SDS011;4266;48.816;9.154;2023-04-06T07:01:13;17.50;;;13.27;;
8458;SDS011;4266;48.816;9.154;2023-04-06T07:03:38;15.73;;;13.77;;
8458;SDS011;4266;48.816;9.154;2023-04-06T07:06:04;18.83;;;13.33;;
8458;SDS011;4266;48.816;9.154;2023-04-06T07:08:31;18.57;;;12.93;;
8458;SDS011;4266;48.816;9.154;2023-04-06T07:10:59;17.97;;;13.30;;
8458;SDS011;4266;48.816;9.154;2023-04-06T07:13:25;19.33;;;13.03;;
8458;SDS011;4266;48.816;9.154;2023-04-06T07:15:52;21.77;;;13.17;;
8458;SDS011;4266;48.816;9.154;2023-04-06T07:18:18;19.63;;;13.87;;
8458;SDS011;4266;48.816;9.154;2023-04-06T07:20:43;16.47;;;13.20;;
8458;SDS011;4266;48.816;9.154;2023-04-06T07:23:10;17.83;;;12.97;;
8458;SDS011;4266;48.816;9.154;2023-04-06T07:25:35;15.20;;;13.47;;
8458;SDS011;4266;48.816;9.154;2023-04-06T07:28:01;22.43;;;12.80;;
8458;SDS011;4266;48.816;9.154;2023-04-06T07:30:27;16.98;;;12.77;;
8458;SDS011;4266;48.816;9.154;2023-04-06T07:32:52;18.35;;;12.80;;
8458;SDS011;4266;48.816;9.154;2023-04-06T07:35:19;15.65;;;12.98;;
8458;SDS011;4266;48.816;9.154;2023-04-06T07:37:45;24.27;;;13.60;;
8458;SDS011;4266;48.816;9.154;2023-04-06T07:40:12;14.25;;;12.52;;
8458;SDS011;4266;48.816;9.154;2023-04-06T07:42:38;17.25;;;13.32;;
8458;SDS011;4266;48.816;9.154;2023-04-06T07:45:04;18.92;;;13.25;;
8458;SDS011;4266;48.816;9.154;2023-04-06T07:47:30;20.83;;;14.50;;
8458;SDS011;4266;48.816;9.154;2023-04-06T07:49:56;17.90;;;12.95;;
8458;SDS011;4266;48.816;9.154;2023-04-06T07:52:22;13.95;;;12.50;;
8458;SDS011;4266;48.816;9.154;2023-04-06T07:54:48;20.58;;;13.00;;
8458;SDS011;4266;48.816;9.154;2023-04-06T07:57:15;14.43;;;12.82;;
8458;SDS011;4266;48.816;9.154;2023-04-06T07:59:40;17.23;;;12.60;;
8458;SDS011;4266;48.816;9.154;2023-04-06T08:02:06;14.95;;;12.27;;
8458;SDS011;4266;48.816;9.154;2023-04-06T08:04:33;16.70;;;12.43;;
8458;SDS011;4266;48.816;9.154;2023-04-06T08:06:58;13.55;;;12.13;;
8458;SDS011;4266;48.816;9.154;2023-04-06T08:09:24;15.27;;;11.98;;
8458;SDS011;4266;48.816;9.154;2023-04-06T08:11:50;16.77;;;12.57;;
8458;SDS011;4266;48.816;9.154;2023-04-06T08:14:16;17.30;;;12.57;;
8458;SDS011;4266;48.816;9.154;2023-04-06T08:16:41;13.75;;;12.35;;
8458;SDS011;4266;48.816;9.154;2023-04-06T08:19:08;18.50;;;13.48;;
8458;SDS011;4266;48.816;9.154;2023-04-06T08:21:33;15.25;;;13.23;;
8458;SDS011;4266;48.816;9.154;2023-04-06T08:23:59;19.23;;;13.52;;
8458;SDS011;4266;48.816;9.154;2023-04-06T08:26:25;14.25;;;12.70;;
8458;SDS011;4266;48.816;9.154;2023-04-06T08:28:50;15.80;;;13.73;;
8458;SDS011;4266;48.816;9.154;2023-04-06T08:31:16;13.80;;;12.30;;
8458;SDS011;4266;48.816;9.154;2023-04-06T08:33:42;17.98;;;12.73;;
8458;SDS011;4266;48.816;9.154;2023-04-06T08:36:10;14.38;;;12.82;;
8458;SDS011;4266;48.816;9.154;2023-04-06T08:38:37;16.25;;;13.27;;
8458;SDS011;4266;48.816;9.154;2023-04-06T08:41:07;16.35;;;12.75;;
8458;SDS011;4266;48.816;9.154;2023-04-06T08:43:44;15.27;;;12.82;;
8458;SDS011;4266;48.816;9.154;2023-04-06T08:46:12;19.83;;;13.10;;
8458;SDS011;4266;48.816;9.154;2023-04-06T08:48:38;15.13;;;12.15;;
8458;SDS011;4266;48.816;9.154;2023-04-06T08:51:04;15.23;;;11.75;;
8458;SDS011;4266;48.816;9.154;2023-04-06T08:53:30;18.40;;;11.70;;
8458;SDS011;4266;48.816;9.154;2023-04-06T08:55:57;14.63;;;12.27;;
8458;SDS011;4266;48.816;9.154;2023-04-06T08:58:22;30.42;;;12.37;;
8458;SDS011;4266;48.816;9.154;2023-04-06T09:00:48;18.25;;;12.27;;
8458;SDS011;4266;48.816;9.154;2023-04-06T09:03:13;14.60;;;11.60;;
8458;SDS011;4266;48.816;9.154;2023-04-06T09:05:39;12.27;;;10.80;;
8458;SDS011;4266;48.816;9.154;2023-04-06T09:08:05;12.30;;;10.93;;
8458;SDS011;4266;48.816;9.154;2023-04-06T09:10:32;12.88;;;11.65;;
8458;SDS011;4266;48.816;9.154;2023-04-06T09:13:03;19.17;;;11.30;;
8458;SDS011;4266;48.816;9.154;2023-04-06T09:15:28;12.52;;;11.32;;
8458;SDS011;4266;48.816;9.154;2023-04-06T09:17:53;20.05;;;11.00;;
8458;SDS011;4266;48.816;9.154;2023-04-06T09:20:23;13.90;;;10.52;;
8458;SDS011;4266;48.816;9.154;2023-04-06T09:22:48;12.15;;;10.93;;
8458;SDS011;4266;48.816;9.154;2023-04-06T09:25:18;13.02;;;11.73;;
8458;SDS011;4266;48.816;9.154;2023-04-06T09:27:40;13.10;;;11.20;;
8458;SDS011;4266;48.816;9.154;2023-04-06T09:30:06;16.42;;;10.88;;
8458;SDS011;4266;48.816;9.154;2023-04-06T09:32:32;12.35;;;11.15;;
8458;SDS011;4266;48.816;9.154;2023-04-06T09:37:31;12.50;;;10.73;;
8458;SDS011;4266;48.816;9.154;2023-04-06T09:40:03;13.18;;;11.85;;
8458;SDS011;4266;48.816;9.154;2023-04-06T09:42:30;11.77;;;10.55;;
8458;SDS011;4266;48.816;9.154;2023-04-06T09:44:55;13.02;;;10.77;;
8458;SDS011;4266;48.816;9.154;2023-04-06T09:47:21;11.82;;;10.52;;
8458;SDS011;4266;48.816;9.154;2023-04-06T09:49:47;12.23;;;11.15;;
8458;SDS011;4266;48.816;9.154;2023-04-06T09:52:12;13.00;;;11.73;;
8458;SDS011;4266;48.816;9.154;2023-04-06T09:54:38;12.37;;;11.27;;
8458;SDS011;4266;48.816;9.154;2023-04-06T09:57:07;11.52;;;10.50;;
8458;SDS011;4266;48.816;9.154;2023-04-06T10:00:07;11.73;;;10.10;;
8458;SDS011;4266;48.816;9.154;2023-04-06T10:04:56;11.82;;;10.48;;
8458;SDS011;4266;48.816;9.154;2023-04-06T10:07:19;11.68;;;10.70;;
8458;SDS011;4266;48.816;9.154;2023-04-06T10:09:45;10.23;;;9.43;;
8458;SDS011;4266;48.816;9.154;2023-04-06T10:12:11;11.25;;;10.25;;
8458;SDS011;4266;48.816;9.154;2023-04-06T10:14:37;10.75;;;9.68;;
8458;SDS011;4266;48.816;9.154;2023-04-06T10:17:03;11.30;;;10.20;;
8458;SDS011;4266;48.816;9.154;2023-04-06T10:19:32;11.18;;;10.27;;
8458;SDS011;4266;48.816;9.154;2023-04-06T10:21:55;10.90;;;10.02;;
8458;SDS011;4266;48.816;9.154;2023-04-06T10:24:20;11.27;;;10.27;;
8458;SDS011;4266;48.816;9.154;2023-04-06T10:29:23;10.50;;;9.50;;
8458;SDS011;4266;48.816;9.154;2023-04-06T10:31:49;10.77;;;9.80;;
8458;SDS011;4266;48.816;9.154;2023-04-06T10:34:15;18.25;;;11.43;;
8458;SDS011;4266;48.816;9.154;2023-04-06T10:36:41;10.85;;;9.80;;
8458;SDS011;4266;48.816;9.154;2023-04-06T10:39:06;10.82;;;9.75;;
8458;SDS011;4266;48.816;9.154;2023-04-06T10:41:40;10.73;;;9.82;;
8458;SDS011;4266;48.816;9.154;2023-04-06T10:44:02;15.07;;;9.98;;
8458;SDS011;4266;48.816;9.154;2023-04-06T10:46:29;10.98;;;9.70;;
8458;SDS011;4266;48.816;9.154;2023-04-06T10:48:55;10.50;;;9.55;;
8458;SDS011;4266;48.816;9.154;2023-04-06T10:51:24;9.85;;;8.93;;
8458;SDS011;4266;48.816;9.154;2023-04-06T10:53:47;10.27;;;9.35;;
8458;SDS011;4266;48.816;9.154;2023-04-06T10:56:13;10.15;;;9.00;;
8458;SDS011;4266;48.816;9.154;2023-04-06T10:58:43;9.50;;;8.70;;
8458;SDS011;4266;48.816;9.154;2023-04-06T11:01:09;9.80;;;9.00;;
8458;SDS011;4266;48.816;9.154;2023-04-06T11:03:42;10.93;;;9.98;;
8458;SDS011;4266;48.816;9.154;2023-04-06T11:06:01;10.65;;;9.77;;
8458;SDS011;4266;48.816;9.154;2023-04-06T11:08:29;10.15;;;9.25;;
8458;SDS011;4266;48.816;9.154;2023-04-06T11:16:18;9.40;;;8.68;;
8458;SDS011;4266;48.816;9.154;2023-04-06T11:18:51;10.00;;;9.07;;
8458;SDS011;4266;48.816;9.154;2023-04-06T11:21:19;11.05;;;9.07;;
8458;SDS011;4266;48.816;9.154;2023-04-06T11:23:45;11.48;;;9.13;;
8458;SDS011;4266;48.816;9.154;2023-04-06T11:26:12;10.10;;;9.10;;
8458;SDS011;4266;48.816;9.154;2023-04-06T11:28:37;9.85;;;9.05;;
8458;SDS011;4266;48.816;9.154;2023-04-06T11:31:03;10.18;;;9.18;;
8458;SDS011;4266;48.816;9.154;2023-04-06T11:33:29;9.75;;;9.00;;
8458;SDS011;4266;48.816;9.154;2023-04-06T11:35:57;10.43;;;9.50;;
8458;SDS011;4266;48.816;9.154;2023-04-06T11:38:22;9.30;;;8.48;;
8458;SDS011;4266;48.816;9.154;2023-04-06T11:40:52;10.00;;;8.95;;
8458;SDS011;4266;48.816;9.154;2023-04-06T11:43:14;9.85;;;8.77;;
8458;SDS011;4266;48.816;9.154;2023-04-06T11:45:41;9.95;;;9.07;;
8458;SDS011;4266;48.816;9.154;2023-04-06T11:48:16;9.70;;;8.60;;
8458;SDS011;4266;48.816;9.154;2023-04-06T11:50:34;9.40;;;8.50;;
8458;SDS011;4266;48.816;9.154;2023-04-06T11:53:00;9.93;;;8.98;;
8458;SDS011;4266;48.816;9.154;2023-04-06T11:55:25;9.20;;;8.30;;
8458;SDS011;4266;48.816;9.154;2023-04-06T11:57:51;12.63;;;9.40;;
8458;SDS011;4266;48.816;9.154;2023-04-06T12:00:17;10.82;;;8.75;;
8458;SDS011;4266;48.816;9.154;2023-04-06T12:02:45;9.27;;;8.57;;
8458;SDS011;4266;48.816;9.154;2023-04-06T12:05:11;9.57;;;8.70;;
8458;SDS011;4266;48.816;9.154;2023-04-06T12:07:37;8.63;;;8.02;;
8458;SDS011;4266;48.816;9.154;2023-04-06T12:10:03;9.93;;;8.90;;
8458;SDS011;4266;48.816;9.154;2023-04-06T12:12:30;9.55;;;8.48;;
8458;SDS011;4266;48.816;9.154;2023-04-06T12:14:55;9.63;;;8.93;;
8458;SDS011;4266;48.816;9.154;2023-04-06T12:17:22;9.48;;;8.68;;
8458;SDS011;4266;48.816;9.154;2023-04-06T12:19:47;9.38;;;8.65;;
8458;SDS011;4266;48.816;9.154;2023-04-06T12:22:13;9.23;;;8.52;;
8458;SDS011;4266;48.816;9.154;2023-04-06T12:24:39;9.10;;;8.30;;
8458;SDS011;4266;48.816;9.154;2023-04-06T12:27:05;9.13;;;8.27;;
8458;SDS011;4266;48.816;9.154;2023-04-06T12:29:30;9.70;;;8.70;;
8458;SDS011;4266;48.816;9.154;2023-04-06T12:31:56;9.32;;;8.52;;
8458;SDS011;4266;48.816;9.154;2023-04-06T12:34:22;9.98;;;8.68;;
8458;SDS011;4266;48.816;9.154;2023-04-06T12:36:47;9.90;;;9.00;;
8458;SDS011;4266;48.816;9.154;2023-04-06T12:39:13;9.35;;;8.57;;
8458;SDS011;4266;48.816;9.154;2023-04-06T12:41:39;10.40;;;9.35;;
8458;SDS011;4266;48.816;9.154;2023-04-06T12:44:07;9.98;;;9.23;;
8458;SDS011;4266;48.816;9.154;2023-04-06T12:46:33;11.55;;;8.35;;
8458;SDS011;4266;48.816;9.154;2023-04-06T12:48:58;9.45;;;8.52;;
8458;SDS011;4266;48.816;9.154;2023-04-06T12:51:25;10.27;;;9.38;;
8458;SDS011;4266;48.816;9.154;2023-04-06T12:53:50;10.10;;;9.02;;
8458;SDS011;4266;48.816;9.154;2023-04-06T12:56:16;9.13;;;8.32;;
8458;SDS011;4266;48.816;9.154;2023-04-06T12:58:41;9.75;;;8.95;;
8458;SDS011;4266;48.816;9.154;2023-04-06T13:01:08;9.57;;;8.68;;
8458;SDS011;4266;48.816;9.154;2023-04-06T13:03:33;9.25;;;8.55;;
8458;SDS011;4266;48.816;9.154;2023-04-06T13:05:59;9.27;;;8.48;;
8458;SDS011;4266;48.816;9.154;2023-04-06T13:08:25;9.63;;;8.73;;
8458;SDS011;4266;48.816;9.154;2023-04-06T13:10:51;10.65;;;8.38;;
8458;SDS011;4266;48.816;9.154;2023-04-06T13:13:16;8.57;;;7.87;;
8458;SDS011;4266;48.816;9.154;2023-04-06T13:15:43;9.77;;;8.77;;
8458;SDS011;4266;48.816;9.154;2023-04-06T13:18:08;8.60;;;7.90;;
8458;SDS011;4266;48.816;9.154;2023-04-06T13:20:34;9.60;;;8.73;;
8458;SDS011;4266;48.816;9.154;2023-04-06T13:23:00;9.70;;;8.93;;
8458;SDS011;4266;48.816;9.154;2023-04-06T13:25:25;11.18;;;8.40;;
8458;SDS011;4266;48.816;9.154;2023-04-06T13:27:51;9.75;;;8.80;;
8458;SDS011;4266;48.816;9.154;2023-04-06T13:30:17;9.23;;;8.43;;
8458;SDS011;4266;48.816;9.154;2023-04-06T13:32:43;10.18;;;9.27;;
8458;SDS011;4266;48.816;9.154;2023-04-06T13:35:08;10.10;;;9.20;;
8458;SDS011;4266;48.816;9.154;2023-04-06T13:37:34;12.90;;;9.93;;
8458;SDS011;4266;48.816;9.154;2023-04-06T13:40:01;10.05;;;9.15;;
8458;SDS011;4266;48.816;9.154;2023-04-06T13:42:27;9.75;;;8.90;;
8458;SDS011;4266;48.816;9.154;2023-04-06T13:44:53;9.38;;;8.55;;
8458;SDS011;4266;48.816;9.154;2023-04-06T13:47:19;9.80;;;8.85;;
8458;SDS011;4266;48.816;9.154;2023-04-06T13:49:44;10.05;;;9.00;;
8458;SDS011;4266;48.816;9.154;2023-04-06T13:52:10;9.95;;;8.95;;
8458;SDS011;4266;48.816;9.154;2023-04-06T13:54:36;9.40;;;8.65;;
8458;SDS011;4266;48.816;9.154;2023-04-06T13:57:03;10.32;;;9.32;;
8458;SDS011;4266;48.816;9.154;2023-04-06T13:59:32;10.23;;;8.55;;
8458;SDS011;4266;48.816;9.154;2023-04-06T14:01:57;10.00;;;9.02;;
8458;SDS011;4266;48.816;9.154;2023-04-06T14:04:23;8.98;;;8.18;;
8458;SDS011;4266;48.816;9.154;2023-04-06T14:06:49;8.45;;;7.60;;
8458;SDS011;4266;48.816;9.154;2023-04-06T14:09:15;9.25;;;8.45;;
8458;SDS011;4266;48.816;9.154;2023-04-06T14:11:41;9.27;;;8.38;;
8458;SDS011;4266;48.816;9.154;2023-04-06T14:14:06;9.73;;;8.77;;
8458;SDS011;4266;48.816;9.154;2023-04-06T14:16:32;9.10;;;8.20;;
8458;SDS011;4266;48.816;9.154;2023-04-06T14:18:59;12.20;;;9.15;;
8458;SDS011;4266;48.816;9.154;2023-04-06T14:21:24;11.88;;;9.07;;
8458;SDS011;4266;48.816;9.154;2023-04-06T14:23:50;10.20;;;9.20;;
8458;SDS011;4266;48.816;9.154;2023-04-06T14:26:16;10.25;;;8.70;;
8458;SDS011;4266;48.816;9.154;2023-04-06T14:28:42;9.68;;;8.65;;
8458;SDS011;4266;48.816;9.154;2023-04-06T14:31:10;12.98;;;8.57;;
8458;SDS011;4266;48.816;9.154;2023-04-06T14:33:35;9.73;;;8.18;;
8458;SDS011;4266;48.816;9.154;2023-04-06T14:36:04;10.27;;;8.50;;
8458;SDS011;4266;48.816;9.154;2023-04-06T14:38:31;11.20;;;8.52;;
8458;SDS011;4266;48.816;9.154;2023-04-06T14:40:56;9.63;;;8.77;;
8458;SDS011;4266;48.816;9.154;2023-04-06T14:43:22;9.48;;;8.57;;
8458;SDS011;4266;48.816;9.154;2023-04-06T14:45:48;9.80;;;8.90;;
8458;SDS011;4266;48.816;9.154;2023-04-06T14:48:14;9.52;;;8.55;;
8458;SDS011;4266;48.816;9.154;2023-04-06T14:50:40;8.90;;;8.07;;
8458;SDS011;4266;48.816;9.154;2023-04-06T14:53:06;11.13;;;8.73;;
8458;SDS011;4266;48.816;9.154;2023-04-06T14:55:31;10.50;;;8.87;;
8458;SDS011;4266;48.816;9.154;2023-04-06T14:57:58;9.93;;;7.97;;
8458;SDS011;4266;48.816;9.154;2023-04-06T15:00:24;9.53;;;8.63;;
8458;SDS011;4266;48.816;9.154;2023-04-06T15:02:50;11.82;;;8.43;;
8458;SDS011;4266;48.816;9.154;2023-04-06T15:05:16;11.50;;;8.57;;